sensor_id;sensor_type;location;lat;lon;timestamp;P1;durP1;ratioP1;P2;durP2;ratioP2
69305;SDS011;56427;51.580;4.656;2022-10-28T00:00:12;14.10;;;7.20;;
69305;SDS011;56427;51.580;4.656;2022-10-28T00:02:37;16.43;;;7.90;;
69305;SDS011;56427;51.580;4.656;2022-10-28T00:05:04;16.40;;;7.55;;
69305;SDS011;56427;51.580;4.656;2022-10-28T00:07:30;15.20;;;7.68;;
69305;SDS011;56427;51.580;4.656;2022-10-28T00:09:56;15.00;;;7.50;;
69305;SDS011;56427;51.580;4.656;2022-10-28T00:12:21;15.93;;;7.70;;
69305;SDS011;56427;51.580;4.656;2022-10-28T00:14:46;20.47;;;7.63;;
69305;SDS011;56427;51.580;4.656;2022-10-28T00:17:11;14.73;;;7.20;;
69305;SDS011;56427;51.580;4.656;2022-10-28T00:19:37;17.50;;;7.60;;
69305;SDS011;56427;51.580;4.656;2022-10-28T00:22:02;17.37;;;7.80;;
69305;SDS011;56427;51.580;4.656;2022-10-28T00:24:27;17.83;;;7.43;;
69305;SDS011;56427;51.580;4.656;2022-10-28T00:26:52;20.20;;;7.67;;
69305;SDS011;56427;51.580;4.656;2022-10-28T00:29:18;16.27;;;8.67;;
69305;SDS011;56427;51.580;4.656;2022-10-28T00:31:44;19.33;;;7.93;;
69305;SDS011;56427;51.580;4.656;2022-10-28T00:34:11;15.23;;;7.23;;
69305;SDS011;56427;51.580;4.656;2022-10-28T00:36:42;20.83;;;7.82;;
69305;SDS011;56427;51.580;4.656;2022-10-28T00:39:10;18.52;;;7.80;;
69305;SDS011;56427;51.580;4.656;2022-10-28T00:41:38;15.60;;;7.32;;
69305;SDS011;56427;51.580;4.656;2022-10-28T00:47:01;15.97;;;7.10;;
69305;SDS011;56427;51.580;4.656;2022-10-28T00:49:29;17.85;;;8.90;;
69305;SDS011;56427;51.580;4.656;2022-10-28T00:51:59;17.75;;;8.10;;
69305;SDS011;56427;51.580;4.656;2022-10-28T00:54:28;19.77;;;7.82;;
69305;SDS011;56427;51.580;4.656;2022-10-28T00:56:55;19.10;;;8.20;;
69305;SDS011;56427;51.580;4.656;2022-10-28T00:59:34;16.40;;;8.00;;
69305;SDS011;56427;51.580;4.656;2022-10-28T01:02:02;18.83;;;7.43;;
69305;SDS011;56427;51.580;4.656;2022-10-28T01:04:29;21.63;;;7.97;;
69305;SDS011;56427;51.580;4.656;2022-10-28T01:06:54;15.37;;;7.73;;
69305;SDS011;56427;51.580;4.656;2022-10-28T01:09:21;20.07;;;8.53;;
69305;SDS011;56427;51.580;4.656;2022-10-28T01:12:47;21.47;;;8.37;;
69305;SDS011;56427;51.580;4.656;2022-10-28T01:15:08;18.77;;;7.65;;
69305;SDS011;56427;51.580;4.656;2022-10-28T01:17:53;17.80;;;7.40;;
69305;SDS011;56427;51.580;4.656;2022-10-28T01:23:21;16.92;;;7.80;;
69305;SDS011;56427;51.580;4.656;2022-10-28T01:26:11;18.77;;;7.30;;
69305;SDS011;56427;51.580;4.656;2022-10-28T01:29:00;15.93;;;7.13;;
69305;SDS011;56427;51.580;4.656;2022-10-28T01:31:43;16.27;;;7.20;;
69305;SDS011;56427;51.580;4.656;2022-10-28T01:34:27;18.83;;;7.28;;
69305;SDS011;56427;51.580;4.656;2022-10-28T01:37:02;20.17;;;6.80;;
69305;SDS011;56427;51.580;4.656;2022-10-28T01:40:25;14.83;;;7.10;;
69305;SDS011;56427;51.580;4.656;2022-10-28T01:43:07;20.65;;;6.97;;
69305;SDS011;56427;51.580;4.656;2022-10-28T01:45:47;18.33;;;7.13;;
69305;SDS011;56427;51.580;4.656;2022-10-28T01:51:38;16.92;;;6.68;;
69305;SDS011;56427;51.580;4.656;2022-10-28T01:54:07;17.47;;;6.27;;
69305;SDS011;56427;51.580;4.656;2022-10-28T01:56:36;18.17;;;6.80;;
69305;SDS011;56427;51.580;4.656;2022-10-28T01:59:05;16.73;;;6.07;;
69305;SDS011;56427;51.580;4.656;2022-10-28T02:01:35;15.80;;;6.07;;
69305;SDS011;56427;51.580;4.656;2022-10-28T02:04:01;16.77;;;6.25;;
69305;SDS011;56427;51.580;4.656;2022-10-28T02:06:27;16.23;;;5.93;;
69305;SDS011;56427;51.580;4.656;2022-10-28T02:09:17;19.45;;;6.50;;
69305;SDS011;56427;51.580;4.656;2022-10-28T02:20:31;17.33;;;6.05;;
69305;SDS011;56427;51.580;4.656;2022-10-28T02:28:24;13.38;;;6.13;;
69305;SDS011;56427;51.580;4.656;2022-10-28T02:31:04;13.83;;;5.80;;
69305;SDS011;56427;51.580;4.656;2022-10-28T02:33:41;11.13;;;5.22;;
69305;SDS011;56427;51.580;4.656;2022-10-28T02:36:13;16.50;;;6.25;;
69305;SDS011;56427;51.580;4.656;2022-10-28T02:38:44;13.32;;;5.63;;
69305;SDS011;56427;51.580;4.656;2022-10-28T02:41:18;16.65;;;6.72;;
69305;SDS011;56427;51.580;4.656;2022-10-28T02:43:54;17.27;;;6.27;;
69305;SDS011;56427;51.580;4.656;2022-10-28T02:46:23;14.68;;;6.07;;
69305;SDS011;56427;51.580;4.656;2022-10-28T02:48:53;16.27;;;6.30;;
69305;SDS011;56427;51.580;4.656;2022-10-28T02:51:28;24.08;;;7.05;;
69305;SDS011;56427;51.580;4.656;2022-10-28T02:54:03;17.90;;;6.15;;
69305;SDS011;56427;51.580;4.656;2022-10-28T02:56:37;12.90;;;6.03;;
69305;SDS011;56427;51.580;4.656;2022-10-28T02:59:08;16.88;;;6.22;;
69305;SDS011;56427;51.580;4.656;2022-10-28T03:01:35;17.60;;;5.97;;
69305;SDS011;56427;51.580;4.656;2022-10-28T03:04:01;17.58;;;6.40;;
69305;SDS011;56427;51.580;4.656;2022-10-28T03:06:27;16.27;;;5.73;;
69305;SDS011;56427;51.580;4.656;2022-10-28T03:08:52;15.45;;;6.40;;
69305;SDS011;56427;51.580;4.656;2022-10-28T03:11:17;16.53;;;5.83;;
69305;SDS011;56427;51.580;4.656;2022-10-28T03:13:44;17.10;;;5.73;;
69305;SDS011;56427;51.580;4.656;2022-10-28T03:16:09;12.63;;;5.20;;
69305;SDS011;56427;51.580;4.656;2022-10-28T03:18:34;15.50;;;5.77;;
69305;SDS011;56427;51.580;4.656;2022-10-28T03:20:59;13.53;;;5.97;;
69305;SDS011;56427;51.580;4.656;2022-10-28T03:23:25;13.67;;;6.00;;
69305;SDS011;56427;51.580;4.656;2022-10-28T03:25:50;17.83;;;5.80;;
69305;SDS011;56427;51.580;4.656;2022-10-28T03:28:15;20.23;;;6.20;;
69305;SDS011;56427;51.580;4.656;2022-10-28T03:30:41;19.47;;;5.77;;
69305;SDS011;56427;51.580;4.656;2022-10-28T03:33:06;14.67;;;5.73;;
69305;SDS011;56427;51.580;4.656;2022-10-28T03:35:31;13.53;;;5.00;;
69305;SDS011;56427;51.580;4.656;2022-10-28T03:37:56;11.57;;;5.43;;
69305;SDS011;56427;51.580;4.656;2022-10-28T03:40:22;23.03;;;5.97;;
69305;SDS011;56427;51.580;4.656;2022-10-28T03:42:47;17.43;;;6.70;;
69305;SDS011;56427;51.580;4.656;2022-10-28T03:45:12;17.93;;;6.47;;
69305;SDS011;56427;51.580;4.656;2022-10-28T03:47:38;13.40;;;5.57;;
69305;SDS011;56427;51.580;4.656;2022-10-28T03:50:04;19.48;;;6.60;;
69305;SDS011;56427;51.580;4.656;2022-10-28T03:52:30;14.40;;;6.03;;
69305;SDS011;56427;51.580;4.656;2022-10-28T03:54:55;16.60;;;6.27;;
69305;SDS011;56427;51.580;4.656;2022-10-28T03:57:20;12.73;;;5.77;;
69305;SDS011;56427;51.580;4.656;2022-10-28T03:59:45;10.47;;;5.47;;
69305;SDS011;56427;51.580;4.656;2022-10-28T04:02:10;18.27;;;6.00;;
69305;SDS011;56427;51.580;4.656;2022-10-28T04:04:36;15.27;;;5.95;;
69305;SDS011;56427;51.580;4.656;2022-10-28T04:07:01;13.60;;;5.70;;
69305;SDS011;56427;51.580;4.656;2022-10-28T04:09:27;16.63;;;6.40;;
69305;SDS011;56427;51.580;4.656;2022-10-28T04:11:52;15.43;;;5.97;;
69305;SDS011;56427;51.580;4.656;2022-10-28T04:14:17;17.77;;;5.70;;
69305;SDS011;56427;51.580;4.656;2022-10-28T04:16:43;13.17;;;5.83;;
69305;SDS011;56427;51.580;4.656;2022-10-28T04:19:08;11.13;;;6.00;;
69305;SDS011;56427;51.580;4.656;2022-10-28T04:21:33;17.57;;;5.90;;
69305;SDS011;56427;51.580;4.656;2022-10-28T04:23:58;14.67;;;5.53;;
69305;SDS011;56427;51.580;4.656;2022-10-28T04:26:24;15.97;;;6.03;;
69305;SDS011;56427;51.580;4.656;2022-10-28T04:28:49;16.87;;;7.20;;
69305;SDS011;56427;51.580;4.656;2022-10-28T04:31:14;12.03;;;5.97;;
69305;SDS011;56427;51.580;4.656;2022-10-28T04:33:40;16.80;;;6.10;;
69305;SDS011;56427;51.580;4.656;2022-10-28T04:36:05;21.43;;;6.50;;
69305;SDS011;56427;51.580;4.656;2022-10-28T04:38:31;15.98;;;5.95;;
69305;SDS011;56427;51.580;4.656;2022-10-28T04:40:56;17.33;;;5.93;;
69305;SDS011;56427;51.580;4.656;2022-10-28T04:43:21;18.87;;;6.60;;
69305;SDS011;56427;51.580;4.656;2022-10-28T04:45:47;14.37;;;5.37;;
69305;SDS011;56427;51.580;4.656;2022-10-28T04:48:12;12.83;;;5.90;;
69305;SDS011;56427;51.580;4.656;2022-10-28T04:50:37;15.20;;;5.77;;
69305;SDS011;56427;51.580;4.656;2022-10-28T04:53:02;12.63;;;5.87;;
69305;SDS011;56427;51.580;4.656;2022-10-28T04:55:28;13.17;;;5.80;;
69305;SDS011;56427;51.580;4.656;2022-10-28T04:57:54;20.47;;;6.53;;
69305;SDS011;56427;51.580;4.656;2022-10-28T05:00:21;17.13;;;6.00;;
69305;SDS011;56427;51.580;4.656;2022-10-28T05:02:46;20.73;;;5.68;;
69305;SDS011;56427;51.580;4.656;2022-10-28T05:05:12;17.50;;;6.13;;
69305;SDS011;56427;51.580;4.656;2022-10-28T05:07:38;13.77;;;6.47;;
69305;SDS011;56427;51.580;4.656;2022-10-28T05:10:03;13.23;;;6.10;;
69305;SDS011;56427;51.580;4.656;2022-10-28T05:12:29;19.25;;;8.27;;
69305;SDS011;56427;51.580;4.656;2022-10-28T05:14:54;21.33;;;8.23;;
69305;SDS011;56427;51.580;4.656;2022-10-28T05:17:20;18.73;;;7.37;;
69305;SDS011;56427;51.580;4.656;2022-10-28T05:19:45;18.10;;;7.63;;
69305;SDS011;56427;51.580;4.656;2022-10-28T05:22:10;28.90;;;7.67;;
69305;SDS011;56427;51.580;4.656;2022-10-28T05:24:36;22.07;;;6.87;;
69305;SDS011;56427;51.580;4.656;2022-10-28T05:27:01;20.33;;;6.70;;
69305;SDS011;56427;51.580;4.656;2022-10-28T05:29:26;20.03;;;6.80;;
69305;SDS011;56427;51.580;4.656;2022-10-28T05:31:51;14.10;;;5.50;;
69305;SDS011;56427;51.580;4.656;2022-10-28T05:34:17;15.47;;;6.07;;
69305;SDS011;56427;51.580;4.656;2022-10-28T05:36:42;14.37;;;6.80;;
69305;SDS011;56427;51.580;4.656;2022-10-28T05:39:07;13.53;;;6.83;;
69305;SDS011;56427;51.580;4.656;2022-10-28T05:41:32;17.30;;;6.67;;
69305;SDS011;56427;51.580;4.656;2022-10-28T05:43:58;18.27;;;6.53;;
69305;SDS011;56427;51.580;4.656;2022-10-28T05:46:23;16.90;;;6.60;;
69305;SDS011;56427;51.580;4.656;2022-10-28T05:48:48;15.50;;;6.97;;
69305;SDS011;56427;51.580;4.656;2022-10-28T05:51:13;16.63;;;5.90;;
69305;SDS011;56427;51.580;4.656;2022-10-28T05:53:39;23.70;;;6.73;;
69305;SDS011;56427;51.580;4.656;2022-10-28T05:56:06;15.82;;;6.25;;
69305;SDS011;56427;51.580;4.656;2022-10-28T05:58:32;14.55;;;5.70;;
69305;SDS011;56427;51.580;4.656;2022-10-28T06:00:57;16.10;;;6.27;;
69305;SDS011;56427;51.580;4.656;2022-10-28T06:03:23;17.60;;;6.47;;
69305;SDS011;56427;51.580;4.656;2022-10-28T06:05:48;18.73;;;6.20;;
69305;SDS011;56427;51.580;4.656;2022-10-28T06:08:13;19.13;;;6.60;;
69305;SDS011;56427;51.580;4.656;2022-10-28T06:10:39;15.80;;;6.23;;
69305;SDS011;56427;51.580;4.656;2022-10-28T06:13:05;18.63;;;6.50;;
69305;SDS011;56427;51.580;4.656;2022-10-28T06:15:30;17.70;;;6.30;;
69305;SDS011;56427;51.580;4.656;2022-10-28T06:17:56;21.07;;;6.07;;
69305;SDS011;56427;51.580;4.656;2022-10-28T06:20:21;12.57;;;5.57;;
69305;SDS011;56427;51.580;4.656;2022-10-28T06:22:50;16.07;;;6.77;;
69305;SDS011;56427;51.580;4.656;2022-10-28T06:25:17;15.45;;;6.00;;
69305;SDS011;56427;51.580;4.656;2022-10-28T06:27:43;16.13;;;5.65;;
69305;SDS011;56427;51.580;4.656;2022-10-28T06:30:09;18.90;;;6.43;;
69305;SDS011;56427;51.580;4.656;2022-10-28T06:32:35;17.13;;;6.00;;
69305;SDS011;56427;51.580;4.656;2022-10-28T06:35:00;14.73;;;5.63;;
69305;SDS011;56427;51.580;4.656;2022-10-28T06:37:26;17.10;;;6.63;;
69305;SDS011;56427;51.580;4.656;2022-10-28T06:39:51;16.80;;;6.87;;
69305;SDS011;56427;51.580;4.656;2022-10-28T06:42:17;19.58;;;5.72;;
69305;SDS011;56427;51.580;4.656;2022-10-28T06:44:43;18.13;;;5.63;;
69305;SDS011;56427;51.580;4.656;2022-10-28T06:47:08;15.57;;;6.20;;
69305;SDS011;56427;51.580;4.656;2022-10-28T06:49:33;18.10;;;6.17;;
69305;SDS011;56427;51.580;4.656;2022-10-28T06:51:59;15.17;;;6.17;;
69305;SDS011;56427;51.580;4.656;2022-10-28T06:54:24;15.70;;;5.87;;
69305;SDS011;56427;51.580;4.656;2022-10-28T06:56:49;16.00;;;6.20;;
69305;SDS011;56427;51.580;4.656;2022-10-28T06:59:15;13.90;;;6.43;;
69305;SDS011;56427;51.580;4.656;2022-10-28T07:01:40;16.07;;;6.57;;
69305;SDS011;56427;51.580;4.656;2022-10-28T07:04:05;17.87;;;5.80;;
69305;SDS011;56427;51.580;4.656;2022-10-28T07:06:34;17.00;;;6.20;;
69305;SDS011;56427;51.580;4.656;2022-10-28T07:09:00;21.63;;;5.90;;
69305;SDS011;56427;51.580;4.656;2022-10-28T07:11:25;16.57;;;5.70;;
69305;SDS011;56427;51.580;4.656;2022-10-28T07:13:50;17.07;;;6.40;;
69305;SDS011;56427;51.580;4.656;2022-10-28T07:16:15;12.33;;;5.17;;
69305;SDS011;56427;51.580;4.656;2022-10-28T07:18:41;13.53;;;6.07;;
69305;SDS011;56427;51.580;4.656;2022-10-28T07:21:06;21.80;;;6.97;;
69305;SDS011;56427;51.580;4.656;2022-10-28T07:23:31;13.73;;;5.20;;
69305;SDS011;56427;51.580;4.656;2022-10-28T07:25:58;16.35;;;5.82;;
69305;SDS011;56427;51.580;4.656;2022-10-28T07:28:24;17.03;;;5.73;;
69305;SDS011;56427;51.580;4.656;2022-10-28T07:30:50;18.25;;;6.53;;
69305;SDS011;56427;51.580;4.656;2022-10-28T07:33:16;14.10;;;5.60;;
69305;SDS011;56427;51.580;4.656;2022-10-28T07:35:41;21.10;;;6.13;;
69305;SDS011;56427;51.580;4.656;2022-10-28T07:38:08;16.65;;;5.57;;
69305;SDS011;56427;51.580;4.656;2022-10-28T07:40:34;19.73;;;5.78;;
69305;SDS011;56427;51.580;4.656;2022-10-28T07:42:59;14.47;;;5.70;;
69305;SDS011;56427;51.580;4.656;2022-10-28T07:45:24;22.27;;;5.73;;
69305;SDS011;56427;51.580;4.656;2022-10-28T07:47:50;19.33;;;5.87;;
69305;SDS011;56427;51.580;4.656;2022-10-28T07:50:15;15.20;;;5.17;;
69305;SDS011;56427;51.580;4.656;2022-10-28T07:52:41;17.40;;;6.45;;
69305;SDS011;56427;51.580;4.656;2022-10-28T07:55:07;16.63;;;5.57;;
69305;SDS011;56427;51.580;4.656;2022-10-28T07:57:32;12.93;;;4.97;;
69305;SDS011;56427;51.580;4.656;2022-10-28T07:59:59;14.00;;;5.43;;
69305;SDS011;56427;51.580;4.656;2022-10-28T08:02:24;12.93;;;5.47;;
69305;SDS011;56427;51.580;4.656;2022-10-28T08:04:50;15.63;;;5.20;;
69305;SDS011;56427;51.580;4.656;2022-10-28T08:07:16;17.60;;;5.47;;
69305;SDS011;56427;51.580;4.656;2022-10-28T08:09:43;13.88;;;5.55;;
69305;SDS011;56427;51.580;4.656;2022-10-28T08:12:08;12.27;;;4.63;;
69305;SDS011;56427;51.580;4.656;2022-10-28T08:14:37;17.58;;;5.55;;
69305;SDS011;56427;51.580;4.656;2022-10-28T08:17:02;20.83;;;5.47;;
69305;SDS011;56427;51.580;4.656;2022-10-28T08:19:28;14.63;;;5.30;;
69305;SDS011;56427;51.580;4.656;2022-10-28T08:21:53;18.93;;;5.50;;
69305;SDS011;56427;51.580;4.656;2022-10-28T08:24:18;11.50;;;5.27;;
69305;SDS011;56427;51.580;4.656;2022-10-28T08:26:44;19.40;;;5.80;;
69305;SDS011;56427;51.580;4.656;2022-10-28T08:29:09;17.07;;;6.27;;
69305;SDS011;56427;51.580;4.656;2022-10-28T08:31:36;16.55;;;5.13;;
69305;SDS011;56427;51.580;4.656;2022-10-28T08:34:02;19.33;;;5.50;;
69305;SDS011;56427;51.580;4.656;2022-10-28T08:36:28;17.05;;;5.20;;
69305;SDS011;56427;51.580;4.656;2022-10-28T08:38:53;14.63;;;5.20;;
69305;SDS011;56427;51.580;4.656;2022-10-28T08:41:37;20.93;;;5.83;;
69305;SDS011;56427;51.580;4.656;2022-10-28T08:44:14;17.85;;;5.50;;
69305;SDS011;56427;51.580;4.656;2022-10-28T08:49:42;17.80;;;5.72;;
69305;SDS011;56427;51.580;4.656;2022-10-28T08:55:04;15.20;;;5.68;;
69305;SDS011;56427;51.580;4.656;2022-10-28T08:57:33;16.20;;;5.65;;
69305;SDS011;56427;51.580;4.656;2022-10-28T09:00:15;16.77;;;5.77;;
69305;SDS011;56427;51.580;4.656;2022-10-28T09:02:54;13.95;;;4.90;;
69305;SDS011;56427;51.580;4.656;2022-10-28T09:05:27;15.45;;;5.30;;
69305;SDS011;56427;51.580;4.656;2022-10-28T09:07:53;18.67;;;4.80;;
69305;SDS011;56427;51.580;4.656;2022-10-28T09:10:45;17.63;;;5.10;;
69305;SDS011;56427;51.580;4.656;2022-10-28T09:13:19;19.70;;;5.15;;
69305;SDS011;56427;51.580;4.656;2022-10-28T09:16:10;18.40;;;5.35;;
69305;SDS011;56427;51.580;4.656;2022-10-28T09:18:51;13.00;;;5.00;;
69305;SDS011;56427;51.580;4.656;2022-10-28T09:22:05;15.27;;;4.22;;
69305;SDS011;56427;51.580;4.656;2022-10-28T09:24:11;19.73;;;4.93;;
69305;SDS011;56427;51.580;4.656;2022-10-28T09:26:54;14.50;;;4.35;;
69305;SDS011;56427;51.580;4.656;2022-10-28T09:32:28;15.87;;;4.43;;
69305;SDS011;56427;51.580;4.656;2022-10-28T09:35:09;14.45;;;4.40;;
69305;SDS011;56427;51.580;4.656;2022-10-28T09:37:38;14.75;;;4.68;;
69305;SDS011;56427;51.580;4.656;2022-10-28T09:40:21;13.93;;;4.55;;
69305;SDS011;56427;51.580;4.656;2022-10-28T09:45:52;13.27;;;4.20;;
69305;SDS011;56427;51.580;4.656;2022-10-28T09:48:23;14.55;;;4.50;;
69305;SDS011;56427;51.580;4.656;2022-10-28T09:50:51;15.35;;;4.75;;
69305;SDS011;56427;51.580;4.656;2022-10-28T09:56:06;14.57;;;4.30;;
69305;SDS011;56427;51.580;4.656;2022-10-28T09:58:32;14.03;;;4.63;;
69305;SDS011;56427;51.580;4.656;2022-10-28T10:00:58;16.27;;;4.43;;
69305;SDS011;56427;51.580;4.656;2022-10-28T10:03:24;15.57;;;4.83;;
69305;SDS011;56427;51.580;4.656;2022-10-28T10:05:50;17.42;;;4.68;;
69305;SDS011;56427;51.580;4.656;2022-10-28T10:08:18;15.73;;;4.23;;
69305;SDS011;56427;51.580;4.656;2022-10-28T10:10:51;18.38;;;4.55;;
69305;SDS011;56427;51.580;4.656;2022-10-28T10:13:21;11.25;;;4.10;;
69305;SDS011;56427;51.580;4.656;2022-10-28T10:15:53;15.85;;;4.18;;
69305;SDS011;56427;51.580;4.656;2022-10-28T10:18:24;16.03;;;4.40;;
69305;SDS011;56427;51.580;4.656;2022-10-28T10:20:54;17.58;;;3.95;;
69305;SDS011;56427;51.580;4.656;2022-10-28T10:23:29;18.02;;;4.80;;
69305;SDS011;56427;51.580;4.656;2022-10-28T10:28:32;14.32;;;4.22;;
69305;SDS011;56427;51.580;4.656;2022-10-28T10:31:01;20.53;;;4.63;;
69305;SDS011;56427;51.580;4.656;2022-10-28T10:33:30;14.48;;;4.30;;
69305;SDS011;56427;51.580;4.656;2022-10-28T10:36:03;14.20;;;4.55;;
69305;SDS011;56427;51.580;4.656;2022-10-28T10:38:29;12.50;;;4.00;;
69305;SDS011;56427;51.580;4.656;2022-10-28T10:40:56;17.13;;;4.88;;
69305;SDS011;56427;51.580;4.656;2022-10-28T10:46:04;16.08;;;4.28;;
69305;SDS011;56427;51.580;4.656;2022-10-28T10:48:40;15.02;;;4.30;;
69305;SDS011;56427;51.580;4.656;2022-10-28T10:51:07;16.88;;;4.75;;
69305;SDS011;56427;51.580;4.656;2022-10-28T10:53:39;19.83;;;4.68;;
69305;SDS011;56427;51.580;4.656;2022-10-28T10:56:09;17.00;;;4.47;;
69305;SDS011;56427;51.580;4.656;2022-10-28T10:58:48;15.93;;;4.20;;
69305;SDS011;56427;51.580;4.656;2022-10-28T11:01:19;15.23;;;4.10;;
69305;SDS011;56427;51.580;4.656;2022-10-28T11:03:59;14.30;;;4.17;;
69305;SDS011;56427;51.580;4.656;2022-10-28T11:06:31;16.40;;;4.38;;
69305;SDS011;56427;51.580;4.656;2022-10-28T11:09:02;15.65;;;4.00;;
69305;SDS011;56427;51.580;4.656;2022-10-28T11:11:33;18.35;;;4.85;;
69305;SDS011;56427;51.580;4.656;2022-10-28T11:14:05;16.65;;;4.38;;
69305;SDS011;56427;51.580;4.656;2022-10-28T11:16:54;17.63;;;4.17;;
69305;SDS011;56427;51.580;4.656;2022-10-28T11:19:27;18.83;;;4.18;;
69305;SDS011;56427;51.580;4.656;2022-10-28T11:27:26;16.25;;;4.03;;
69305;SDS011;56427;51.580;4.656;2022-10-28T11:30:02;14.27;;;3.83;;
69305;SDS011;56427;51.580;4.656;2022-10-28T11:37:48;16.17;;;3.80;;
69305;SDS011;56427;51.580;4.656;2022-10-28T11:43:53;15.15;;;4.07;;
69305;SDS011;56427;51.580;4.656;2022-10-28T11:54:52;12.50;;;3.72;;
69305;SDS011;56427;51.580;4.656;2022-10-28T11:57:49;14.43;;;3.88;;
69305;SDS011;56427;51.580;4.656;2022-10-28T12:02:59;15.02;;;3.58;;
69305;SDS011;56427;51.580;4.656;2022-10-28T12:08:17;14.82;;;4.05;;
69305;SDS011;56427;51.580;4.656;2022-10-28T12:16:11;14.20;;;3.67;;
69305;SDS011;56427;51.580;4.656;2022-10-28T12:18:51;16.73;;;3.75;;
69305;SDS011;56427;51.580;4.656;2022-10-28T12:23:59;19.60;;;3.55;;
69305;SDS011;56427;51.580;4.656;2022-10-28T12:26:39;15.93;;;3.72;;
69305;SDS011;56427;51.580;4.656;2022-10-28T12:29:14;18.57;;;4.10;;
69305;SDS011;56427;51.580;4.656;2022-10-28T12:32:08;10.68;;;3.85;;
69305;SDS011;56427;51.580;4.656;2022-10-28T12:34:47;17.92;;;4.25;;
69305;SDS011;56427;51.580;4.656;2022-10-28T12:37:21;11.65;;;4.03;;
69305;SDS011;56427;51.580;4.656;2022-10-28T12:45:19;14.80;;;3.97;;
69305;SDS011;56427;51.580;4.656;2022-10-28T12:47:48;15.43;;;4.00;;
69305;SDS011;56427;51.580;4.656;2022-10-28T12:50:22;12.30;;;3.50;;
69305;SDS011;56427;51.580;4.656;2022-10-28T12:58:48;16.55;;;3.95;;
69305;SDS011;56427;51.580;4.656;2022-10-28T13:01:15;13.88;;;4.00;;
69305;SDS011;56427;51.580;4.656;2022-10-28T13:03:43;13.80;;;4.10;;
69305;SDS011;56427;51.580;4.656;2022-10-28T13:09:04;10.85;;;3.63;;
69305;SDS011;56427;51.580;4.656;2022-10-28T13:14:21;11.48;;;3.75;;
69305;SDS011;56427;51.580;4.656;2022-10-28T13:28:21;14.20;;;3.90;;
69305;SDS011;56427;51.580;4.656;2022-10-28T13:31:14;15.45;;;3.80;;
69305;SDS011;56427;51.580;4.656;2022-10-28T13:33:44;17.40;;;3.80;;
69305;SDS011;56427;51.580;4.656;2022-10-28T13:38:42;12.90;;;4.85;;
69305;SDS011;56427;51.580;4.656;2022-10-28T13:41:24;20.27;;;5.25;;
69305;SDS011;56427;51.580;4.656;2022-10-28T13:43:55;13.38;;;3.53;;
69305;SDS011;56427;51.580;4.656;2022-10-28T13:49:32;14.73;;;4.13;;
69305;SDS011;56427;51.580;4.656;2022-10-28T13:57:08;14.90;;;4.38;;
69305;SDS011;56427;51.580;4.656;2022-10-28T13:59:48;16.13;;;4.50;;
69305;SDS011;56427;51.580;4.656;2022-10-28T14:02:22;17.60;;;4.22;;
69305;SDS011;56427;51.580;4.656;2022-10-28T14:05:02;11.75;;;4.18;;
69305;SDS011;56427;51.580;4.656;2022-10-28T14:07:31;17.73;;;4.70;;
69305;SDS011;56427;51.580;4.656;2022-10-28T14:10:53;22.88;;;4.55;;
69305;SDS011;56427;51.580;4.656;2022-10-28T14:12:59;13.03;;;3.70;;
69305;SDS011;56427;51.580;4.656;2022-10-28T14:15:30;16.10;;;4.30;;
69305;SDS011;56427;51.580;4.656;2022-10-28T14:17:59;18.55;;;4.50;;
69305;SDS011;56427;51.580;4.656;2022-10-28T14:23:48;13.77;;;4.43;;
69305;SDS011;56427;51.580;4.656;2022-10-28T14:26:01;15.20;;;4.30;;
69305;SDS011;56427;51.580;4.656;2022-10-28T14:49:48;14.63;;;4.32;;
69305;SDS011;56427;51.580;4.656;2022-10-28T14:52:30;15.70;;;4.40;;
69305;SDS011;56427;51.580;4.656;2022-10-28T14:55:00;15.63;;;4.60;;
69305;SDS011;56427;51.580;4.656;2022-10-28T14:57:29;13.80;;;4.57;;
69305;SDS011;56427;51.580;4.656;2022-10-28T14:59:56;16.90;;;4.78;;
69305;SDS011;56427;51.580;4.656;2022-10-28T15:02:30;18.70;;;5.25;;
69305;SDS011;56427;51.580;4.656;2022-10-28T15:05:11;13.07;;;4.00;;
69305;SDS011;56427;51.580;4.656;2022-10-28T15:07:40;12.32;;;4.68;;
69305;SDS011;56427;51.580;4.656;2022-10-28T15:10:12;17.27;;;4.67;;
69305;SDS011;56427;51.580;4.656;2022-10-28T15:12:52;13.60;;;4.15;;
69305;SDS011;56427;51.580;4.656;2022-10-28T15:15:20;18.25;;;4.40;;
69305;SDS011;56427;51.580;4.656;2022-10-28T15:17:47;18.23;;;5.00;;
69305;SDS011;56427;51.580;4.656;2022-10-28T15:22:46;13.25;;;4.03;;
69305;SDS011;56427;51.580;4.656;2022-10-28T15:25:12;18.87;;;5.03;;
69305;SDS011;56427;51.580;4.656;2022-10-28T15:27:39;15.35;;;4.57;;
69305;SDS011;56427;51.580;4.656;2022-10-28T15:30:27;16.38;;;5.07;;
69305;SDS011;56427;51.580;4.656;2022-10-28T15:32:52;12.70;;;4.30;;
69305;SDS011;56427;51.580;4.656;2022-10-28T15:38:06;17.85;;;4.28;;
69305;SDS011;56427;51.580;4.656;2022-10-28T15:40:47;15.48;;;4.32;;
69305;SDS011;56427;51.580;4.656;2022-10-28T15:43:17;16.15;;;4.50;;
69305;SDS011;56427;51.580;4.656;2022-10-28T15:45:44;10.77;;;3.53;;
69305;SDS011;56427;51.580;4.656;2022-10-28T15:48:10;12.95;;;4.05;;
69305;SDS011;56427;51.580;4.656;2022-10-28T15:50:38;15.38;;;4.60;;
69305;SDS011;56427;51.580;4.656;2022-10-28T15:55:38;16.67;;;5.85;;
69305;SDS011;56427;51.580;4.656;2022-10-28T16:00:33;16.40;;;4.65;;
69305;SDS011;56427;51.580;4.656;2022-10-28T16:02:59;15.67;;;4.80;;
69305;SDS011;56427;51.580;4.656;2022-10-28T16:08:01;16.60;;;4.57;;
69305;SDS011;56427;51.580;4.656;2022-10-28T16:10:33;16.67;;;5.03;;
69305;SDS011;56427;51.580;4.656;2022-10-28T16:13:01;17.80;;;4.65;;
69305;SDS011;56427;51.580;4.656;2022-10-28T16:15:28;14.93;;;4.60;;
69305;SDS011;56427;51.580;4.656;2022-10-28T16:17:54;18.53;;;5.10;;
69305;SDS011;56427;51.580;4.656;2022-10-28T16:20:20;13.37;;;4.97;;
69305;SDS011;56427;51.580;4.656;2022-10-28T16:22:49;16.52;;;5.07;;
69305;SDS011;56427;51.580;4.656;2022-10-28T16:25:16;13.05;;;4.68;;
69305;SDS011;56427;51.580;4.656;2022-10-28T16:27:46;15.10;;;4.72;;
69305;SDS011;56427;51.580;4.656;2022-10-28T16:30:12;20.80;;;4.90;;
69305;SDS011;56427;51.580;4.656;2022-10-28T16:35:19;14.15;;;4.47;;
69305;SDS011;56427;51.580;4.656;2022-10-28T16:37:48;17.02;;;5.07;;
69305;SDS011;56427;51.580;4.656;2022-10-28T16:40:14;18.42;;;4.95;;
69305;SDS011;56427;51.580;4.656;2022-10-28T16:42:40;20.42;;;6.15;;
69305;SDS011;56427;51.580;4.656;2022-10-28T16:45:08;17.00;;;5.57;;
69305;SDS011;56427;51.580;4.656;2022-10-28T16:47:38;15.23;;;5.00;;
69305;SDS011;56427;51.580;4.656;2022-10-28T16:50:03;12.70;;;5.23;;
69305;SDS011;56427;51.580;4.656;2022-10-28T16:52:29;14.30;;;4.95;;
69305;SDS011;56427;51.580;4.656;2022-10-28T16:54:55;18.03;;;5.50;;
69305;SDS011;56427;51.580;4.656;2022-10-28T16:57:21;13.43;;;5.38;;
69305;SDS011;56427;51.580;4.656;2022-10-28T16:59:47;12.85;;;5.15;;
69305;SDS011;56427;51.580;4.656;2022-10-28T17:02:13;15.67;;;5.27;;
69305;SDS011;56427;51.580;4.656;2022-10-28T17:04:43;17.90;;;5.80;;
69305;SDS011;56427;51.580;4.656;2022-10-28T17:07:08;22.63;;;5.93;;
69305;SDS011;56427;51.580;4.656;2022-10-28T17:09:37;14.68;;;5.45;;
69305;SDS011;56427;51.580;4.656;2022-10-28T17:12:02;16.53;;;5.63;;
69305;SDS011;56427;51.580;4.656;2022-10-28T17:14:28;18.67;;;5.97;;
69305;SDS011;56427;51.580;4.656;2022-10-28T17:16:53;27.70;;;6.23;;
69305;SDS011;56427;51.580;4.656;2022-10-28T17:19:18;18.17;;;5.50;;
69305;SDS011;56427;51.580;4.656;2022-10-28T17:21:43;17.50;;;5.90;;
69305;SDS011;56427;51.580;4.656;2022-10-28T17:24:09;14.23;;;5.20;;